createdAt,value
2018-06-13T00:01:29.741Z,72.10
2018-06-13T00:03:59.286Z,72.30
2018-06-13T00:06:28.476Z,71.80
2018-06-13T00:08:59.018Z,71.40
2018-06-13T00:11:27.603Z,71.40
2018-06-13T00:13:58.958Z,71.60
2018-06-13T00:16:31.431Z,71.00
2018-06-13T00:19:01.183Z,70.40
2018-06-13T00:21:31.872Z,71.60
2018-06-13T00:24:01.935Z,71.60
2018-06-13T00:26:35.999Z,71.60
2018-06-13T00:29:06.533Z,70.60
2018-06-13T00:31:36.816Z,71.60
2018-06-13T00:34:06.876Z,71.20
2018-06-13T00:36:35.985Z,71.40
2018-06-13T00:39:09.752Z,71.50
2018-06-13T00:41:38.391Z,70.80
2018-06-13T00:44:11.310Z,69.90
2018-06-13T00:46:39.935Z,70.30
2018-06-13T00:49:10.218Z,70.60
2018-06-13T00:51:39.985Z,71.10
2018-06-13T00:54:11.071Z,70.40
2018-06-13T00:56:41.235Z,71.00
2018-06-13T00:59:11.327Z,70.60
2018-06-13T01:04:14.119Z,68.20
2018-06-13T01:06:43.012Z,67.40
2018-06-13T01:09:13.095Z,67.80
2018-06-13T01:11:44.101Z,67.30
2018-06-13T01:14:14.188Z,67.40
2018-06-13T01:16:44.927Z,67.80
2018-06-13T01:19:14.103Z,67.50
2018-06-13T01:21:44.484Z,66.50
2018-06-13T01:24:13.905Z,66.80
2018-06-13T01:26:47.797Z,67.30
2018-06-13T01:29:16.554Z,67.00
2018-06-13T01:31:50.351Z,67.30
2018-06-13T01:34:20.140Z,66.40
2018-06-13T01:36:53.006Z,67.40
2018-06-13T01:39:24.373Z,65.10
2018-06-13T01:41:54.050Z,65.90
2018-06-13T01:44:24.743Z,65.50
2018-06-13T01:46:56.611Z,65.40
2018-06-13T01:49:27.084Z,65.60
2018-06-13T01:51:58.601Z,65.10
2018-06-13T01:54:27.691Z,65.60
2018-06-13T01:56:56.283Z,65.30
2018-06-13T01:59:24.832Z,65.60
2018-06-13T02:01:53.555Z,64.10
2018-06-13T02:04:22.435Z,64.20
2018-06-13T02:06:51.352Z,64.00
2018-06-13T02:09:20.022Z,63.50
2018-06-13T02:11:48.638Z,64.40
2018-06-13T02:14:17.260Z,64.50
2018-06-13T02:16:45.865Z,64.20
2018-06-13T02:19:14.399Z,64.30
2018-06-13T02:21:43.007Z,64.70
2018-06-13T02:24:11.619Z,65.20
2018-06-13T02:26:40.152Z,63.80
2018-06-13T02:29:08.778Z,62.80
2018-06-13T02:31:37.321Z,64.10
2018-06-13T02:34:05.864Z,64.20
2018-06-13T02:36:34.944Z,63.40
2018-06-13T02:39:03.850Z,62.90
2018-06-13T02:41:32.419Z,62.60
2018-06-13T02:44:01.007Z,61.70
2018-06-13T02:46:29.640Z,61.80
2018-06-13T02:48:58.185Z,61.70
2018-06-13T02:51:26.747Z,61.60
2018-06-13T02:53:55.419Z,61.80
2018-06-13T02:56:23.975Z,61.70
2018-06-13T02:58:52.931Z,61.70
2018-06-13T03:01:21.511Z,61.50
2018-06-13T03:03:50.350Z,61.20
2018-06-13T03:06:18.859Z,60.60
2018-06-13T03:08:47.408Z,60.70
2018-06-13T03:11:15.928Z,61.10
2018-06-13T03:13:44.451Z,60.60
2018-06-13T03:16:13.004Z,62.40
2018-06-13T03:18:41.564Z,62.30
2018-06-13T03:21:10.120Z,61.40
2018-06-13T03:23:38.696Z,61.50
2018-06-13T03:26:07.477Z,61.30
2018-06-13T03:28:35.988Z,60.90
2018-06-13T03:31:04.651Z,60.90
2018-06-13T03:33:33.516Z,61.40
2018-06-13T03:36:02.094Z,61.00
2018-06-13T03:38:31.679Z,61.10
2018-06-13T03:41:00.232Z,62.00
2018-06-13T03:43:28.758Z,61.70
2018-06-13T03:45:57.277Z,61.50
2018-06-13T03:48:25.878Z,60.80
2018-06-13T03:50:54.504Z,60.70
2018-06-13T03:53:23.083Z,60.80
2018-06-13T03:55:51.590Z,60.80
2018-06-13T03:58:20.128Z,60.70
2018-06-13T04:00:48.656Z,60.70
2018-06-13T04:03:17.191Z,60.70
2018-06-13T04:05:45.936Z,60.50
2018-06-13T04:08:14.433Z,60.90
2018-06-13T04:10:42.995Z,60.50
2018-06-13T04:13:11.492Z,60.50
2018-06-13T04:15:40.053Z,60.50
2018-06-13T04:18:08.718Z,60.70
2018-06-13T04:20:37.254Z,61.70
2018-06-13T04:23:05.847Z,61.20
2018-06-13T04:25:34.497Z,60.50
2018-06-13T04:28:03.087Z,60.50
2018-06-13T04:30:31.648Z,60.60
2018-06-13T04:33:00.269Z,60.30
2018-06-13T04:35:28.772Z,59.90
2018-06-13T04:37:57.355Z,60.50
2018-06-13T04:40:25.886Z,60.30
2018-06-13T04:42:54.412Z,60.50
2018-06-13T04:45:22.956Z,59.80
2018-06-13T04:47:51.499Z,60.10
2018-06-13T04:50:19.986Z,60.20
2018-06-13T04:55:16.775Z,61.50
2018-06-13T04:57:45.304Z,60.70
2018-06-13T05:00:13.856Z,60.70
2018-06-13T05:02:42.531Z,61.00
2018-06-13T05:05:11.075Z,60.80
2018-06-13T05:07:39.685Z,61.00
2018-06-13T05:10:08.251Z,61.10
2018-06-13T05:12:36.917Z,60.30
2018-06-13T05:15:05.549Z,60.20
2018-06-13T05:17:34.123Z,60.20
2018-06-13T05:20:02.633Z,59.90
2018-06-13T05:22:31.285Z,60.00
2018-06-13T05:25:00.000Z,60.10
2018-06-13T05:27:28.622Z,61.10
2018-06-13T05:29:57.221Z,60.80
2018-06-13T05:32:25.763Z,60.10
2018-06-13T05:34:54.370Z,59.80
2018-06-13T05:37:22.976Z,60.40
2018-06-13T05:39:51.473Z,60.80
2018-06-13T05:42:20.032Z,60.20
2018-06-13T05:44:48.560Z,60.10
2018-06-13T05:47:17.103Z,60.00
2018-06-13T05:49:45.979Z,60.30
2018-06-13T05:52:14.627Z,60.50
2018-06-13T05:54:43.471Z,60.60
2018-06-13T05:57:12.105Z,60.70
2018-06-13T05:59:40.635Z,61.40
2018-06-13T06:02:09.258Z,61.60
2018-06-13T06:04:37.793Z,61.00
2018-06-13T06:07:06.599Z,60.10
2018-06-13T06:09:35.231Z,60.00
2018-06-13T06:12:03.760Z,60.80
2018-06-13T06:14:32.311Z,61.40
2018-06-13T06:17:00.975Z,60.70
2018-06-13T06:19:29.809Z,59.50
2018-06-13T06:21:58.518Z,59.70
2018-06-13T06:24:27.108Z,59.70
2018-06-13T06:26:55.787Z,59.60
2018-06-13T06:29:24.612Z,59.70
2018-06-13T06:31:53.361Z,60.00
2018-06-13T06:34:22.028Z,59.70
2018-06-13T06:36:50.774Z,59.30
2018-06-13T06:39:19.306Z,59.00
2018-06-13T06:41:48.048Z,59.20
2018-06-13T06:44:16.927Z,60.00
2018-06-13T06:46:45.611Z,59.20
2018-06-13T06:49:14.205Z,59.80
2018-06-13T06:51:42.937Z,59.10
2018-06-13T06:54:11.690Z,58.00
2018-06-13T06:56:40.432Z,57.60
2018-06-13T07:04:20.586Z,58.10
2018-06-13T07:06:49.343Z,57.10
2018-06-13T07:09:18.063Z,57.50
2018-06-13T07:11:47.056Z,57.50
2018-06-13T07:14:15.673Z,57.30
2018-06-13T07:16:44.412Z,57.20
2018-06-13T07:19:13.061Z,57.20
2018-06-13T07:21:41.646Z,56.50
2018-06-13T07:24:10.458Z,56.30
2018-06-13T07:26:39.558Z,55.30
2018-06-13T07:29:08.412Z,55.40
2018-06-13T07:31:36.984Z,55.80
2018-06-13T07:34:05.764Z,55.20
2018-06-13T07:36:34.451Z,55.60
2018-06-13T07:39:03.251Z,55.80
2018-06-13T07:41:32.468Z,54.90
2018-06-13T07:44:01.065Z,54.80
2018-06-13T07:46:29.755Z,55.00
2018-06-13T07:48:58.658Z,54.80
2018-06-13T07:51:27.184Z,54.10
2018-06-13T07:53:55.940Z,54.30
2018-06-13T07:56:24.629Z,53.80
2018-06-13T07:58:53.200Z,53.90
2018-06-13T08:01:21.784Z,54.40
2018-06-13T08:03:50.371Z,53.80
2018-06-13T08:06:19.176Z,53.50
2018-06-13T08:08:52.949Z,53.30
2018-06-13T08:11:21.585Z,53.60
2018-06-13T08:13:50.313Z,53.80
2018-06-13T08:16:18.854Z,54.30
2018-06-13T08:18:47.447Z,53.70
2018-06-13T08:23:44.975Z,53.70
2018-06-13T08:26:13.564Z,53.40
2018-06-13T08:28:42.443Z,53.10
2018-06-13T08:31:11.129Z,53.20
2018-06-13T08:33:39.779Z,53.10
2018-06-13T08:36:08.739Z,53.10
2018-06-13T08:38:37.395Z,53.40
2018-06-13T08:41:06.196Z,52.80
2018-06-13T08:43:35.114Z,52.30
2018-06-13T08:46:03.687Z,51.80
2018-06-13T08:48:32.535Z,51.80
2018-06-13T08:51:01.404Z,51.70
2018-06-13T08:53:30.039Z,51.70
2018-06-13T08:55:58.593Z,51.80
2018-06-13T08:58:27.552Z,52.50
2018-06-13T09:00:56.114Z,52.30
2018-06-13T09:03:24.790Z,52.60
2018-06-13T09:05:53.708Z,52.30
2018-06-13T09:08:22.375Z,52.40
2018-06-13T09:10:51.125Z,51.40
2018-06-13T09:13:19.794Z,51.00
2018-06-13T09:15:48.596Z,52.20
2018-06-13T09:18:17.491Z,51.70
2018-06-13T09:20:46.178Z,52.50
2018-06-13T09:23:14.960Z,52.10
2018-06-13T09:25:43.899Z,51.90
2018-06-13T09:28:12.741Z,51.70
2018-06-13T09:30:41.516Z,51.50
2018-06-13T09:33:10.224Z,51.50
2018-06-13T09:35:38.787Z,52.20
2018-06-13T09:38:07.549Z,53.40
2018-06-13T09:40:36.158Z,52.80
2018-06-13T09:43:04.866Z,52.80
2018-06-13T09:45:33.462Z,53.00
2018-06-13T09:48:02.080Z,52.50
2018-06-13T09:50:30.764Z,52.50
2018-06-13T09:52:59.407Z,52.80
2018-06-13T09:55:28.189Z,52.90
2018-06-13T09:57:56.787Z,53.40
2018-06-13T10:00:30.795Z,53.30
2018-06-13T10:02:59.437Z,53.10
2018-06-13T10:05:28.120Z,53.30
2018-06-13T10:07:56.844Z,53.30
2018-06-13T10:10:25.524Z,53.40
2018-06-13T10:12:54.588Z,53.10
2018-06-13T10:15:23.251Z,52.50
2018-06-13T10:17:51.860Z,52.20
2018-06-13T10:20:20.591Z,52.50
2018-06-13T10:22:49.324Z,52.00
2018-06-13T10:25:17.916Z,51.90
2018-06-13T10:27:46.899Z,51.90
2018-06-13T10:30:15.999Z,52.60
2018-06-13T10:32:44.739Z,52.60
2018-06-13T10:35:13.411Z,52.50
2018-06-13T10:37:41.979Z,52.90
2018-06-13T10:40:10.782Z,52.80
2018-06-13T10:42:39.440Z,52.80
2018-06-13T10:45:08.225Z,53.30
2018-06-13T10:47:36.916Z,52.60
2018-06-13T10:50:06.221Z,52.30
2018-06-13T10:52:35.627Z,51.80
2018-06-13T10:55:04.492Z,51.60
2018-06-13T10:57:33.208Z,51.40
2018-06-13T11:00:01.821Z,51.50
2018-06-13T11:02:30.534Z,52.10
2018-06-13T11:04:59.237Z,52.70
2018-06-13T11:07:27.991Z,52.20
2018-06-13T11:09:56.817Z,52.50
2018-06-13T11:12:25.505Z,52.80
2018-06-13T11:14:54.261Z,53.00
2018-06-13T11:17:22.944Z,52.70
2018-06-13T11:19:51.692Z,53.00
2018-06-13T11:22:20.278Z,52.80
2018-06-13T11:24:48.904Z,52.90
2018-06-13T11:27:17.713Z,52.80
2018-06-13T11:29:51.520Z,52.70
2018-06-13T11:32:20.230Z,53.10
2018-06-13T11:34:53.126Z,53.20
2018-06-13T11:37:21.960Z,53.00
2018-06-13T11:39:50.610Z,52.90
2018-06-13T11:42:19.167Z,53.30
2018-06-13T11:44:48.532Z,53.20
2018-06-13T11:47:17.428Z,52.40
2018-06-13T11:49:46.458Z,52.20
2018-06-13T11:52:15.085Z,51.10
2018-06-13T11:54:43.668Z,51.00
2018-06-13T11:57:12.227Z,51.50
2018-06-13T11:59:41.001Z,51.80
2018-06-13T12:02:10.259Z,51.00
2018-06-13T12:04:38.913Z,51.00
2018-06-13T12:07:07.703Z,51.30
2018-06-13T12:09:36.623Z,49.90
2018-06-13T12:12:05.631Z,50.60
2018-06-13T12:14:34.226Z,49.90
2018-06-13T12:17:03.015Z,50.00
2018-06-13T12:19:32.101Z,50.40
2018-06-13T12:22:00.740Z,50.10
2018-06-13T12:24:29.480Z,50.00
2018-06-13T12:26:58.159Z,51.50
2018-06-13T12:29:26.780Z,51.30
2018-06-13T12:31:55.694Z,51.30
2018-06-13T12:34:24.311Z,51.70
2018-06-13T12:36:53.315Z,51.30
2018-06-13T12:39:21.951Z,50.90
2018-06-13T12:41:50.698Z,50.50
2018-06-13T12:44:19.619Z,50.70
2018-06-13T12:46:48.238Z,50.50
2018-06-13T12:49:17.072Z,50.50
2018-06-13T12:51:45.872Z,50.40
2018-06-13T12:54:14.488Z,49.90
2018-06-13T12:56:43.094Z,50.00
2018-06-13T12:59:12.202Z,49.90
2018-06-13T13:01:41.402Z,50.20
2018-06-13T13:04:10.821Z,49.30
2018-06-13T13:06:39.475Z,48.90
2018-06-13T13:09:10.901Z,48.00
2018-06-13T13:11:40.161Z,48.70
2018-06-13T13:14:09.192Z,48.30
2018-06-13T13:16:38.015Z,48.30
2018-06-13T13:19:06.609Z,48.10
2018-06-13T13:21:35.572Z,47.50
2018-06-13T13:24:04.291Z,47.50
2018-06-13T13:26:33.962Z,48.20
2018-06-13T13:29:03.135Z,48.10
2018-06-13T13:31:31.904Z,48.00
2018-06-13T13:34:01.681Z,48.20
2018-06-13T13:36:31.014Z,47.90
2018-06-13T13:38:59.619Z,49.00
2018-06-13T13:41:28.699Z,48.50
2018-06-13T13:43:57.329Z,48.90
2018-06-13T13:46:26.060Z,48.90
2018-06-13T13:48:54.827Z,49.20
2018-06-13T13:51:24.127Z,49.30
2018-06-13T13:53:52.783Z,49.30
2018-06-13T13:56:21.383Z,49.10
2018-06-13T13:58:49.955Z,48.90
2018-06-13T14:01:19.057Z,49.30
2018-06-13T14:03:47.661Z,49.50
2018-06-13T14:06:16.358Z,49.60
2018-06-13T14:08:45.113Z,49.50
2018-06-13T14:11:14.033Z,49.60
2018-06-13T14:13:42.949Z,49.70
2018-06-13T14:16:11.848Z,50.10
2018-06-13T14:18:40.576Z,50.10
2018-06-13T14:21:09.242Z,49.60
2018-06-13T14:23:37.885Z,48.60
2018-06-13T14:26:07.352Z,48.40
2018-06-13T14:28:36.467Z,47.80
2018-06-13T14:31:05.239Z,48.30
2018-06-13T14:33:34.219Z,48.70
2018-06-13T14:36:02.840Z,48.50
2018-06-13T14:38:31.531Z,49.10
2018-06-13T14:41:00.484Z,48.70
2018-06-13T14:43:29.520Z,48.70
2018-06-13T14:45:58.125Z,48.90
2018-06-13T14:50:55.693Z,49.20
2018-06-13T14:53:24.260Z,49.30
2018-06-13T14:55:58.256Z,49.30
2018-06-13T14:58:26.882Z,49.50
2018-06-13T15:00:55.502Z,48.80
2018-06-13T15:03:24.087Z,48.90
2018-06-13T15:05:52.948Z,49.40
2018-06-13T15:08:21.548Z,49.30
2018-06-13T15:10:50.199Z,48.90
2018-06-13T15:15:47.164Z,49.60
2018-06-13T15:18:15.900Z,49.20
2018-06-13T15:20:44.551Z,48.30
2018-06-13T15:23:13.679Z,48.30
2018-06-13T15:25:42.366Z,48.60
2018-06-13T15:28:11.163Z,48.70
2018-06-13T15:30:39.940Z,49.20
2018-06-13T15:33:09.100Z,48.00
2018-06-13T15:35:37.840Z,48.30
2018-06-13T15:38:06.780Z,48.40
2018-06-13T15:40:35.516Z,48.20
2018-06-13T15:43:04.684Z,48.10
2018-06-13T15:45:33.287Z,48.50
2018-06-13T15:48:01.874Z,48.50
2018-06-13T15:50:30.588Z,48.40
2018-06-13T15:52:59.260Z,48.20
2018-06-13T15:55:27.928Z,48.70
2018-06-13T15:57:56.569Z,48.50
2018-06-13T16:00:25.562Z,48.70
2018-06-13T16:02:54.204Z,48.80
2018-06-13T16:05:22.802Z,49.50
2018-06-13T16:07:51.527Z,48.90
2018-06-13T16:10:20.403Z,48.80
2018-06-13T16:12:49.095Z,48.70
2018-06-13T16:15:20.134Z,48.70
2018-06-13T16:17:48.828Z,48.00
2018-06-13T16:20:17.610Z,48.10
2018-06-13T16:22:46.264Z,48.20
2018-06-13T16:25:14.947Z,48.40
2018-06-13T16:27:43.587Z,49.30
2018-06-13T16:30:12.219Z,49.30
2018-06-13T16:32:40.817Z,49.30
2018-06-13T16:35:09.629Z,49.50
2018-06-13T16:37:38.698Z,49.80
2018-06-13T16:40:07.514Z,49.70
2018-06-13T16:45:05.519Z,49.80
2018-06-13T16:47:34.099Z,49.70
2018-06-13T16:50:08.573Z,49.60
2018-06-13T16:54:55.949Z,49.70
2018-06-13T16:57:24.741Z,49.80
2018-06-13T16:59:53.505Z,50.60
2018-06-13T17:02:22.378Z,50.10
2018-06-13T17:04:51.327Z,49.70
2018-06-13T17:07:19.903Z,49.30
2018-06-13T17:09:49.003Z,49.10
2018-06-13T17:12:17.588Z,49.00
2018-06-13T17:14:46.878Z,48.80
2018-06-13T17:17:15.611Z,48.70
2018-06-13T17:19:44.416Z,49.60
2018-06-13T17:22:13.021Z,49.10
2018-06-13T17:24:41.584Z,49.50
2018-06-13T17:27:11.368Z,49.20
2018-06-13T17:29:40.409Z,49.30
2018-06-13T17:32:09.063Z,49.40
2018-06-13T17:34:37.683Z,49.60
2018-06-13T17:37:06.547Z,49.90
2018-06-13T17:39:35.486Z,50.50
2018-06-13T17:42:04.227Z,49.70
2018-06-13T17:44:33.076Z,49.70
2018-06-13T17:47:01.868Z,49.60
2018-06-13T17:49:30.845Z,49.70
2018-06-13T17:51:59.444Z,50.00
2018-06-13T17:54:28.763Z,50.00
2018-06-13T17:56:57.623Z,50.00
2018-06-13T17:59:26.477Z,50.00
2018-06-13T18:01:56.969Z,50.10
2018-06-13T18:07:29.051Z,50.40
2018-06-13T18:09:57.712Z,50.30
2018-06-13T18:12:26.261Z,50.30
2018-06-13T18:14:54.797Z,50.30
2018-06-13T18:17:23.602Z,50.20
2018-06-13T18:19:52.820Z,50.00
2018-06-13T18:22:21.449Z,50.00
2018-06-13T18:24:50.039Z,50.00
2018-06-13T18:27:18.655Z,50.10
2018-06-13T18:29:47.340Z,50.10
2018-06-13T18:32:16.010Z,50.30
2018-06-13T18:34:44.652Z,50.00
2018-06-13T18:37:13.298Z,50.00
2018-06-13T18:39:41.935Z,50.00
2018-06-13T18:42:10.569Z,50.70
2018-06-13T18:44:39.191Z,50.80
2018-06-13T18:47:07.773Z,50.50
2018-06-13T18:49:36.853Z,50.50
2018-06-13T18:52:05.466Z,51.40
2018-06-13T18:57:02.380Z,50.80
2018-06-13T18:59:31.007Z,50.80
2018-06-13T19:01:59.531Z,51.00
2018-06-13T19:04:28.419Z,51.10
2018-06-13T19:06:57.046Z,51.30
2018-06-13T19:09:25.688Z,51.50
2018-06-13T19:11:54.371Z,51.70
2018-06-13T19:14:22.959Z,51.70
2018-06-13T19:16:51.552Z,51.70
2018-06-13T19:19:20.211Z,51.80
2018-06-13T19:21:48.816Z,51.60
2018-06-13T19:24:17.350Z,51.50
2018-06-13T19:26:46.020Z,51.70
2018-06-13T19:29:14.596Z,51.70
2018-06-13T19:31:43.185Z,51.80
2018-06-13T19:34:11.835Z,51.70
2018-06-13T19:36:40.355Z,51.80
2018-06-13T19:39:10.180Z,51.50
2018-06-13T19:41:38.855Z,51.20
2018-06-13T19:44:07.552Z,50.80
2018-06-13T19:46:36.154Z,50.50
2018-06-13T19:49:04.835Z,50.40
2018-06-13T19:51:33.527Z,50.20
2018-06-13T19:54:07.520Z,50.20
2018-06-13T19:56:36.069Z,50.20
2018-06-13T19:59:04.652Z,50.20
2018-06-13T20:01:33.222Z,50.10
2018-06-13T20:04:07.311Z,50.30
2018-06-13T20:06:38.802Z,50.40
2018-06-13T20:09:09.334Z,50.60
2018-06-13T20:11:38.080Z,50.50
2018-06-13T20:14:11.920Z,50.50
2018-06-13T20:16:51.221Z,51.10
2018-06-13T20:19:25.271Z,50.90
2018-06-13T20:21:55.728Z,50.70
2018-06-13T20:24:24.327Z,51.00
2018-06-13T20:26:58.247Z,51.30
2018-06-13T20:32:00.758Z,51.80
2018-06-13T20:34:29.295Z,52.10
2018-06-13T20:36:57.926Z,51.80
2018-06-13T20:39:26.491Z,52.10
2018-06-13T20:41:55.083Z,51.90
2018-06-13T20:44:23.878Z,51.90
2018-06-13T20:46:52.372Z,52.00
2018-06-13T20:49:20.955Z,52.00
2018-06-13T20:51:49.504Z,52.40
2018-06-13T20:54:18.041Z,52.20
2018-06-13T20:56:46.571Z,52.30
2018-06-13T20:59:15.193Z,52.50
2018-06-13T21:01:43.735Z,52.60
2018-06-13T21:04:12.332Z,52.70
2018-06-13T21:06:40.843Z,52.80
2018-06-13T21:09:14.667Z,53.40
2018-06-13T21:11:43.249Z,52.90
2018-06-13T21:14:11.879Z,52.70
2018-06-13T21:19:08.708Z,52.80
2018-06-13T21:21:37.264Z,52.90
2018-06-13T21:24:05.818Z,52.90
2018-06-13T21:26:34.379Z,52.90
2018-06-13T21:29:02.939Z,53.20
2018-06-13T21:31:31.452Z,53.00
2018-06-13T21:36:28.189Z,53.30
2018-06-13T21:38:56.716Z,53.30
2018-06-13T21:41:25.251Z,53.20
2018-06-13T21:43:53.810Z,53.70
2018-06-13T21:46:22.348Z,54.10
2018-06-13T21:48:50.938Z,54.30
2018-06-13T21:51:19.562Z,54.70
2018-06-13T21:53:48.047Z,54.70
2018-06-13T21:56:16.636Z,54.50
2018-06-13T21:58:45.156Z,54.20
2018-06-13T22:01:13.796Z,53.80
2018-06-13T22:03:42.433Z,53.30
2018-06-13T22:06:11.069Z,53.30
2018-06-13T22:08:39.560Z,53.40
2018-06-13T22:11:08.236Z,53.60
2018-06-13T22:13:36.743Z,54.90
2018-06-13T22:16:05.364Z,55.90
2018-06-13T22:18:33.955Z,56.30
2018-06-13T22:21:02.531Z,56.70
2018-06-13T22:23:31.328Z,56.60
2018-06-13T22:25:59.840Z,56.50
2018-06-13T22:28:28.383Z,56.20
2018-06-13T22:30:56.903Z,56.20
2018-06-13T22:36:08.356Z,56.40
2018-06-13T22:41:05.115Z,57.10
2018-06-13T22:43:33.811Z,57.00
2018-06-13T22:46:02.344Z,56.90
2018-06-13T22:48:30.862Z,57.20
2018-06-13T22:50:59.467Z,57.40
2018-06-13T22:53:28.111Z,57.40
2018-06-13T22:55:56.639Z,57.50
2018-06-13T22:58:25.170Z,57.70
2018-06-13T23:01:04.007Z,58.00
2018-06-13T23:03:33.226Z,57.70
2018-06-13T23:06:04.860Z,57.70
2018-06-13T23:08:34.233Z,57.80
2018-06-13T23:11:02.889Z,57.50
2018-06-13T23:13:31.433Z,57.40
2018-06-13T23:16:00.039Z,57.50
2018-06-13T23:18:29.262Z,57.70
2018-06-13T23:20:58.075Z,58.50
2018-06-13T23:23:26.628Z,58.80
2018-06-13T23:25:56.056Z,59.20
2018-06-13T23:28:24.748Z,59.00
2018-06-13T23:30:53.347Z,58.80
2018-06-13T23:33:21.916Z,58.70
2018-06-13T23:35:50.448Z,58.60
2018-06-13T23:38:18.990Z,58.60
2018-06-13T23:40:47.602Z,58.70
2018-06-13T23:43:16.144Z,58.60
2018-06-13T23:45:44.728Z,58.70
2018-06-13T23:48:13.347Z,58.80
2018-06-13T23:50:41.907Z,59.00
2018-06-13T23:53:10.440Z,58.90
2018-06-13T23:55:38.984Z,59.00
2018-06-13T23:58:22.110Z,59.00
